Observations for Trim Market St
| Time | AQI | Temp °C | Hum % | Pres Pa | CO μg/m³ | H₂S μg/m³ | NO μg/m³ | NO₂ μg/m³ | O₃ μg/m³ | SO₂ μg/m³ | PM1 μg/m³ | PM2.5 μg/m³ | PM10 μg/m³ |
|---|---|---|---|---|---|---|---|---|---|---|---|---|---|
| Tuesday 18 August 2026 | |||||||||||||
| 18:48 | 2 | 19 | 68 | 49,881 | 0 | 8.4 | 1.81 | 42.03 | 62.19 | 0 | 0 | 2.16 | 3.71 |
| 18:47 | 2 | 19 | 68 | 50,392 | 0 | 6.88 | 1.69 | 36.95 | 61.92 | 0 | 0 | 1.68 | 3.06 |
| 18:46 | 2 | 19.1 | 68 | 50,815 | 0 | 7.59 | 1.75 | 36.01 | 63.5 | 0 | 0 | 1.2 | 3.05 |
| 18:44 | 2 | 19.1 | 68 | 51,804 | 0 | 8.27 | 2 | 41.2 | 61.42 | 0 | 0.71 | 2.68 | 5.6 |
| 18:42 | 2 | 19.1 | 67 | 52,756 | 0 | 9.38 | 2.02 | 38.11 | 62.69 | 0 | 0 | 1.72 | 3.67 |
| 18:40 | 2 | 19.2 | 67 | 53,907 | 0 | 6.75 | 2.36 | 34.06 | 63.62 | 0 | 0 | 1.74 | 3.65 |
| 18:39 | 2 | 19.3 | 66 | 54,243 | 0 | 8.25 | 2.25 | 35.87 | 65.59 | 0 | 0.71 | 2.24 | 4.94 |
| 18:38 | 2 | 19.3 | 66 | 54,644 | 0 | 8.15 | 2.24 | 38.25 | 61.8 | 0 | 0.71 | 2.25 | 3.63 |
| 18:35 | 2 | 19.4 | 65 | 55,457 | 0 | 8.31 | 2.12 | 33.03 | 66.46 | 0 | 0 | 1.8 | 3.6 |
| 18:32 | 2 | 19.5 | 65 | 56,055 | 0 | 9.36 | 1.85 | 45.19 | 58.64 | 0 | 0 | 2.32 | 3.58 |
| 18:31 | 2 | 19.6 | 64 | 56,230 | 0 | 9.1 | 2.38 | 34.74 | 62.1 | 0 | 0 | 1.84 | 2.9 |
| 18:24 | 2 | 20.1 | 62 | 57,145 | 0.07 | 8.97 | 1.71 | 34.44 | 61.08 | 0 | 0 | 1.93 | 2.82 |
| 18:20 | 2 | 20.4 | 61 | 57,426 | 0 | 8.03 | 1.3 | 28.35 | 72.38 | 0 | 0.71 | 2.99 | 4.12 |
| 18:19 | 2 | 20.4 | 60 | 57,480 | 0 | 7 | 1.55 | 24.66 | 72.05 | 0 | 0 | 2.01 | 2.74 |
| 18:18 | 2 | 20.5 | 60 | 57,519 | 0 | 7.1 | 1.93 | 22.63 | 74.82 | 0 | 0 | 2.02 | 2.73 |
| 18:17 | 2 | 20.6 | 60 | 57,552 | 0 | 8.5 | 1.83 | 36.57 | 70.22 | 0 | 0.71 | 3.03 | 4.09 |
| 18:16 | 2 | 20.7 | 59 | 57,585 | 0 | 5.79 | 2.27 | 27.12 | 69.83 | 0 | 0 | 2.05 | 2.7 |
| 18:15 | 2 | 20.8 | 59 | 57,607 | 0 | 5.02 | 2.57 | 29.02 | 69.56 | 0 | 0 | 3.07 | 4.07 |
| 18:14 | 2 | 20.9 | 59 | 57,624 | 0 | 4.94 | 2.39 | 28.46 | 67.12 | 0 | 0 | 2.08 | 4.06 |
| 18:13 | 2 | 20.9 | 58 | 57,631 | 0 | 5.13 | 2.67 | 30.95 | 65.52 | 0 | 0 | 2.59 | 5.44 |